createdAt,value
2019-04-11T00:01:05.902Z,79.90
2019-04-11T00:03:37.887Z,77.37
2019-04-11T00:06:08.171Z,90.05
2019-04-11T00:08:38.616Z,91.65
2019-04-11T00:11:09.444Z,96.28
2019-04-11T00:13:41.021Z,89.85
2019-04-11T00:16:11.640Z,91.60
2019-04-11T00:18:42.922Z,101.40
2019-04-11T00:21:13.503Z,91.67
2019-04-11T00:23:43.820Z,99.05
2019-04-11T00:26:14.149Z,94.47
2019-04-11T00:28:44.364Z,88.45
2019-04-11T00:31:14.712Z,90.32
2019-04-11T00:33:45.081Z,103.95
2019-04-11T00:36:16.512Z,100.72
2019-04-11T00:38:48.057Z,86.75
2019-04-11T00:41:18.563Z,93.40
2019-04-11T00:43:50.452Z,100.33
2019-04-11T00:46:20.818Z,95.60
2019-04-11T00:48:51.791Z,94.70
2019-04-11T00:51:23.579Z,89.58
2019-04-11T00:53:55.212Z,92.55
2019-04-11T00:56:26.256Z,88.37
2019-04-11T00:58:58.324Z,99.20
2019-04-11T01:01:28.680Z,93.90
2019-04-11T01:03:59.186Z,80.80
2019-04-11T01:06:30.087Z,81.87
2019-04-11T01:09:00.463Z,83.65
2019-04-11T01:11:32.046Z,97.00
2019-04-11T01:14:03.599Z,90.10
2019-04-11T01:16:40.971Z,87.67
2019-04-11T01:19:11.409Z,83.33
2019-04-11T01:21:42.382Z,85.77
2019-04-11T01:24:13.877Z,96.50
2019-04-11T01:26:45.439Z,92.65
2019-04-11T01:29:15.841Z,81.95
2019-04-11T01:31:48.143Z,82.88
2019-04-11T01:34:18.476Z,79.35
2019-04-11T01:36:48.791Z,79.32
2019-04-11T01:39:43.371Z,77.40
2019-04-11T01:42:13.716Z,92.75
2019-04-11T01:44:45.864Z,86.12
2019-04-11T01:47:23.116Z,87.97
2019-04-11T01:49:54.542Z,84.58
2019-04-11T01:52:24.861Z,89.05
2019-04-11T01:54:56.509Z,85.45
2019-04-11T01:57:27.627Z,87.35
2019-04-11T01:59:57.835Z,92.15
2019-04-11T02:02:42.348Z,97.10
2019-04-11T02:05:27.213Z,100.12
2019-04-11T02:07:58.679Z,102.45
2019-04-11T02:10:29.110Z,100.02
2019-04-11T02:12:59.610Z,92.27
2019-04-11T02:15:30.435Z,88.58
2019-04-11T02:18:01.351Z,80.35
2019-04-11T02:20:32.003Z,72.45
2019-04-11T02:23:07.669Z,80.70
2019-04-11T02:25:47.085Z,76.85
2019-04-11T02:28:18.295Z,78.85
2019-04-11T02:30:51.841Z,84.35
2019-04-11T02:33:24.784Z,77.17
2019-04-11T02:35:56.471Z,81.08
2019-04-11T02:38:28.462Z,82.75
2019-04-11T02:40:58.845Z,77.32
2019-04-11T02:43:29.684Z,90.90
2019-04-11T02:46:12.000Z,83.85
2019-04-11T02:48:33.192Z,79.07
2019-04-11T02:51:06.723Z,78.62
2019-04-11T02:53:36.829Z,79.85
2019-04-11T02:56:09.353Z,84.58
2019-04-11T02:58:40.161Z,82.27
2019-04-11T03:01:12.745Z,77.50
2019-04-11T03:03:42.965Z,80.38
2019-04-11T03:06:15.132Z,76.90
2019-04-11T03:08:46.470Z,78.90
2019-04-11T03:11:19.152Z,78.20
2019-04-11T03:13:52.712Z,68.70
2019-04-11T03:16:35.401Z,88.03
2019-04-11T03:19:14.473Z,79.97
2019-04-11T03:21:30.832Z,80.45
2019-04-11T03:24:00.695Z,82.67
2019-04-11T03:26:33.572Z,82.25
2019-04-11T03:29:06.295Z,90.47
2019-04-11T03:32:32.516Z,84.25
2019-04-11T03:35:09.549Z,92.92
2019-04-11T03:39:32.835Z,92.72
2019-04-11T03:42:07.345Z,74.27
2019-04-11T03:44:24.390Z,82.02
2019-04-11T03:47:08.304Z,80.17
2019-04-11T03:49:34.871Z,91.97
2019-04-11T03:51:55.165Z,87.20
2019-04-11T03:54:26.046Z,89.47
2019-04-11T03:56:57.289Z,86.47
2019-04-11T03:59:29.020Z,86.78
2019-04-11T04:02:00.819Z,79.30
2019-04-11T04:04:32.749Z,81.10
2019-04-11T04:07:04.932Z,87.10
2019-04-11T04:09:37.241Z,84.87
2019-04-11T04:12:09.416Z,85.07
2019-04-11T04:15:07.294Z,87.65
2019-04-11T04:18:12.929Z,88.40
2019-04-11T04:21:11.044Z,90.92
2019-04-11T04:23:45.536Z,91.82
2019-04-11T04:26:16.905Z,85.83
2019-04-11T04:28:47.682Z,83.25
2019-04-11T04:31:18.881Z,84.60
2019-04-11T04:33:51.443Z,89.05
2019-04-11T04:36:22.318Z,92.08
2019-04-11T04:38:54.471Z,95.55
2019-04-11T04:41:37.494Z,89.42
2019-04-11T04:44:01.513Z,83.90
2019-04-11T04:46:50.220Z,87.97
2019-04-11T04:49:04.817Z,86.20
2019-04-11T04:51:37.259Z,89.07
2019-04-11T04:54:08.133Z,84.07
2019-04-11T04:56:39.765Z,87.67
2019-04-11T04:59:13.643Z,84.03
2019-04-11T05:01:45.690Z,86.28
2019-04-11T05:04:15.943Z,86.02
2019-04-11T05:06:50.845Z,85.92
2019-04-11T05:09:21.612Z,85.17
2019-04-11T05:11:52.993Z,96.87
2019-04-11T05:14:24.008Z,93.62
2019-04-11T05:16:55.683Z,83.20
2019-04-11T05:19:28.396Z,85.28
2019-04-11T05:21:57.903Z,95.05
2019-04-11T05:24:28.333Z,87.62
2019-04-11T05:26:59.888Z,91.40
2019-04-11T05:29:30.239Z,85.42
2019-04-11T05:32:00.503Z,85.15
2019-04-11T05:34:30.979Z,83.70
2019-04-11T05:37:01.895Z,76.90
2019-04-11T05:39:32.285Z,81.22
2019-04-11T05:42:03.198Z,84.00
2019-04-11T05:44:38.230Z,79.75
2019-04-11T05:47:08.976Z,77.30
2019-04-11T05:49:56.957Z,91.00
2019-04-11T05:52:30.673Z,91.67
2019-04-11T05:55:02.960Z,96.28
2019-04-11T05:57:38.405Z,106.12
2019-04-11T06:00:13.849Z,103.70
2019-04-11T06:05:27.073Z,108.75
2019-04-11T06:07:58.088Z,111.08
2019-04-11T06:10:41.456Z,123.33
2019-04-11T06:13:37.402Z,98.80
2019-04-11T06:16:16.722Z,106.55
2019-04-11T06:19:42.301Z,105.10
2019-04-11T06:22:29.807Z,103.12
2019-04-11T06:25:32.787Z,103.35
2019-04-11T06:28:27.153Z,114.08
2019-04-11T06:31:49.403Z,107.87
2019-04-11T06:34:24.050Z,103.47
2019-04-11T06:37:15.466Z,102.62
2019-04-11T06:39:51.562Z,101.78
2019-04-11T06:42:37.263Z,100.07
2019-04-11T06:45:31.176Z,98.12
2019-04-11T06:48:26.976Z,92.27
2019-04-11T06:51:02.507Z,105.27
2019-04-11T06:53:36.529Z,103.92
2019-04-11T06:56:32.801Z,106.83
2019-04-11T06:59:06.688Z,111.60
2019-04-11T07:01:38.349Z,107.25
2019-04-11T07:04:17.611Z,107.15
2019-04-11T07:06:49.408Z,114.70
2019-04-11T07:09:37.235Z,110.28
2019-04-11T07:12:11.493Z,98.80
2019-04-11T07:14:49.147Z,111.22
2019-04-11T07:17:38.500Z,111.00
2019-04-11T07:20:20.744Z,108.50
2019-04-11T07:23:11.647Z,119.28
2019-04-11T07:25:49.866Z,114.08
2019-04-11T07:28:29.403Z,107.78
2019-04-11T07:31:17.564Z,112.97
2019-04-11T07:34:08.619Z,110.75
2019-04-11T07:36:57.839Z,111.52
2019-04-11T07:39:47.179Z,109.63
2019-04-11T07:42:46.856Z,108.25
2019-04-11T07:45:25.308Z,101.38
2019-04-11T07:48:02.722Z,108.70
2019-04-11T07:50:33.369Z,102.15
2019-04-11T07:53:04.960Z,117.47
2019-04-11T07:55:36.534Z,107.37
2019-04-11T07:58:25.944Z,102.70
2019-04-11T08:01:21.419Z,94.55
2019-04-11T08:04:17.283Z,99.95
2019-04-11T08:06:58.848Z,97.42
2019-04-11T08:09:35.804Z,101.15
2019-04-11T08:12:09.250Z,99.32
2019-04-11T08:15:01.718Z,93.78
2019-04-11T08:17:41.997Z,99.32
2019-04-11T08:20:27.347Z,100.72
2019-04-11T08:23:06.129Z,104.30
2019-04-11T08:25:54.184Z,96.90
2019-04-11T08:28:24.851Z,95.60
2019-04-11T08:31:01.900Z,104.78
2019-04-11T08:33:33.113Z,92.82
2019-04-11T08:36:11.482Z,97.00
2019-04-11T08:38:42.667Z,90.47
2019-04-11T08:41:32.136Z,91.32
2019-04-11T08:44:07.689Z,100.65
2019-04-11T08:46:40.697Z,101.40
2019-04-11T08:49:29.977Z,86.85
2019-04-11T08:52:13.849Z,94.60
2019-04-11T08:55:08.196Z,97.15
2019-04-11T08:57:47.676Z,98.55
2019-04-11T09:00:43.356Z,96.90
2019-04-11T09:04:01.289Z,86.87
2019-04-11T09:06:30.647Z,86.35
2019-04-11T09:09:09.120Z,87.35
2019-04-11T09:11:42.319Z,97.37
2019-04-11T09:14:30.583Z,101.00
2019-04-11T09:17:16.350Z,94.70
2019-04-11T09:20:05.815Z,83.03
2019-04-11T09:22:42.881Z,86.45
2019-04-11T09:25:41.785Z,93.37
2019-04-11T09:28:21.778Z,93.62
2019-04-11T09:31:07.558Z,91.85
2019-04-11T09:33:55.461Z,85.17
2019-04-11T09:36:36.933Z,85.07
2019-04-11T09:39:15.152Z,83.75
2019-04-11T09:42:10.154Z,82.97
2019-04-11T09:44:55.344Z,83.52
2019-04-11T09:47:49.875Z,89.07
2019-04-11T09:50:40.605Z,84.72
2019-04-11T09:53:12.454Z,84.42
2019-04-11T09:55:53.696Z,82.53
2019-04-11T09:58:25.434Z,80.10
2019-04-11T10:01:13.296Z,75.20
2019-04-11T10:03:45.101Z,90.35
2019-04-11T10:06:37.190Z,86.05
2019-04-11T10:09:08.717Z,82.45
2019-04-11T10:12:00.813Z,84.50
2019-04-11T10:14:31.537Z,85.65
2019-04-11T10:17:22.255Z,80.20
2019-04-11T10:19:54.336Z,76.47
2019-04-11T10:22:43.992Z,72.65
2019-04-11T10:25:17.482Z,81.82
2019-04-11T10:28:04.850Z,80.62
2019-04-11T10:30:53.705Z,79.35
2019-04-11T10:33:46.888Z,79.10
2019-04-11T10:36:25.393Z,91.97
2019-04-11T10:39:18.186Z,84.58
2019-04-11T10:41:51.722Z,84.83
2019-04-11T10:44:29.795Z,79.77
2019-04-11T10:47:09.906Z,90.92
2019-04-11T10:49:50.556Z,88.12
2019-04-11T10:52:26.663Z,83.92
2019-04-11T10:55:11.732Z,79.03
2019-04-11T10:58:00.769Z,86.28
2019-04-11T11:00:48.836Z,86.63
2019-04-11T11:03:30.602Z,70.42
2019-04-11T11:06:01.320Z,82.42
2019-04-11T11:08:38.018Z,87.55
2019-04-11T11:11:19.464Z,82.80
2019-04-11T11:14:06.690Z,80.12
2019-04-11T11:16:45.475Z,83.92
2019-04-11T11:19:45.709Z,78.95
2019-04-11T11:22:23.781Z,80.17
2019-04-11T11:25:15.626Z,81.45
2019-04-11T11:27:46.440Z,81.85
2019-04-11T11:30:54.221Z,74.65
2019-04-11T11:33:36.313Z,72.85
2019-04-11T11:36:37.443Z,80.05
2019-04-11T11:39:13.129Z,84.87
2019-04-11T11:42:01.966Z,69.55
2019-04-11T11:44:42.513Z,76.85
2019-04-11T11:47:34.540Z,76.33
2019-04-11T11:50:04.497Z,82.00
2019-04-11T11:53:14.805Z,81.65
2019-04-11T11:55:45.405Z,78.07
2019-04-11T11:58:47.875Z,75.47
2019-04-11T12:01:17.739Z,74.70
2019-04-11T12:04:04.562Z,89.32
2019-04-11T12:06:35.497Z,72.75
2019-04-11T12:09:34.902Z,79.40
2019-04-11T12:12:11.415Z,75.97
2019-04-11T12:15:09.803Z,64.25
2019-04-11T12:18:01.744Z,67.60
2019-04-11T12:20:39.443Z,69.10
2019-04-11T12:23:24.243Z,83.87
2019-04-11T12:25:55.507Z,76.65
2019-04-11T12:28:48.274Z,71.90
2019-04-11T12:31:19.517Z,74.03
2019-04-11T12:34:08.106Z,66.05
2019-04-11T12:36:44.638Z,74.05
2019-04-11T12:41:57.067Z,59.38
2019-04-11T12:44:44.503Z,66.20
2019-04-11T12:47:39.325Z,59.67
2019-04-11T12:50:31.922Z,62.13
2019-04-11T12:53:12.994Z,63.92
2019-04-11T12:56:02.429Z,64.87
2019-04-11T12:58:54.739Z,62.93
2019-04-11T13:02:02.568Z,56.75
2019-04-11T13:04:34.883Z,60.88
2019-04-11T13:07:27.890Z,58.00
2019-04-11T13:10:10.013Z,60.23
2019-04-11T13:13:03.244Z,60.20
2019-04-11T13:15:40.564Z,62.78
2019-04-11T13:18:40.219Z,61.23
2019-04-11T13:21:35.655Z,63.08
2019-04-11T13:24:37.185Z,63.25
2019-04-11T13:27:13.507Z,66.07
2019-04-11T13:30:02.990Z,62.13
2019-04-11T13:32:51.596Z,65.78
2019-04-11T13:35:48.009Z,65.57
2019-04-11T13:38:20.797Z,58.70
2019-04-11T13:41:20.551Z,63.10
2019-04-11T13:44:15.924Z,60.98
2019-04-11T13:47:05.339Z,56.97
2019-04-11T13:49:50.161Z,60.05
2019-04-11T13:52:34.527Z,58.23
2019-04-11T13:55:25.872Z,58.60
2019-04-11T13:58:16.532Z,60.40
2019-04-11T14:00:50.690Z,64.20
2019-04-11T14:03:40.157Z,57.55
2019-04-11T14:06:17.299Z,55.90
2019-04-11T14:09:06.712Z,58.65
2019-04-11T14:11:40.935Z,57.98
2019-04-11T14:14:26.210Z,61.05
2019-04-11T14:17:15.803Z,60.03
2019-04-11T14:20:05.289Z,63.08
2019-04-11T14:23:15.013Z,63.38
2019-04-11T14:26:09.399Z,57.50
2019-04-11T14:28:52.373Z,58.42
2019-04-11T14:31:40.741Z,54.00
2019-04-11T14:34:18.081Z,50.23
2019-04-11T14:37:14.658Z,52.17
2019-04-11T14:39:47.245Z,54.23
2019-04-11T14:42:36.490Z,52.23
2019-04-11T14:45:14.157Z,56.70
2019-04-11T14:48:02.669Z,52.83
2019-04-11T14:50:46.143Z,53.75
2019-04-11T14:53:35.499Z,51.05
2019-04-11T14:56:07.536Z,54.42
2019-04-11T14:59:12.059Z,52.53
2019-04-11T15:01:44.068Z,52.45
2019-04-11T15:04:25.441Z,51.40
2019-04-11T15:06:55.760Z,52.35
2019-04-11T15:09:38.094Z,57.17
2019-04-11T15:12:25.527Z,57.17
2019-04-11T15:18:47.770Z,54.88
2019-04-11T15:21:55.776Z,54.70
2019-04-11T15:24:26.226Z,55.52
2019-04-11T15:27:14.335Z,58.83
2019-04-11T15:29:46.449Z,54.00
2019-04-11T15:32:47.640Z,57.17
2019-04-11T15:35:18.262Z,54.88
2019-04-11T15:38:08.940Z,58.70
2019-04-11T15:40:40.723Z,57.05
2019-04-11T15:43:42.275Z,58.52
2019-04-11T15:46:25.728Z,55.67
2019-04-11T15:49:21.075Z,56.40
2019-04-11T15:51:56.800Z,59.93
2019-04-11T15:54:44.985Z,55.20
2019-04-11T15:57:22.461Z,57.33
2019-04-11T16:00:30.347Z,59.67
2019-04-11T16:03:14.905Z,59.35
2019-04-11T16:06:05.800Z,57.88
2019-04-11T16:08:43.157Z,58.68
2019-04-11T16:11:29.113Z,55.95
2019-04-11T16:14:26.956Z,58.75
2019-04-11T16:17:17.383Z,55.70
2019-04-11T16:19:49.516Z,56.23
2019-04-11T16:22:38.078Z,54.38
2019-04-11T16:25:11.298Z,65.32
2019-04-11T16:28:07.880Z,53.55
2019-04-11T16:30:43.739Z,52.27
2019-04-11T16:33:33.341Z,54.80
2019-04-11T16:36:14.074Z,48.28
2019-04-11T16:38:51.809Z,54.40
2019-04-11T16:41:40.137Z,55.98
2019-04-11T16:44:13.969Z,55.43
2019-04-11T16:47:03.320Z,55.85
2019-04-11T16:49:33.749Z,52.55
2019-04-11T16:52:07.600Z,48.58
2019-04-11T16:54:39.732Z,51.30
2019-04-11T16:57:08.555Z,56.02
2019-04-11T16:59:39.160Z,56.30
2019-04-11T17:02:09.962Z,57.25
2019-04-11T17:04:40.513Z,58.52
2019-04-11T17:07:28.920Z,55.55
2019-04-11T17:09:59.821Z,54.55
2019-04-11T17:12:30.455Z,54.93
2019-04-11T17:15:01.675Z,54.45
2019-04-11T17:17:33.638Z,55.15
2019-04-11T17:20:06.491Z,54.77
2019-04-11T17:22:37.874Z,54.45
2019-04-11T17:25:08.481Z,53.42
2019-04-11T17:27:38.997Z,52.23
2019-04-11T17:30:09.567Z,51.55
2019-04-11T17:32:39.988Z,52.65
2019-04-11T17:35:10.807Z,51.75
2019-04-11T17:37:41.328Z,54.45
2019-04-11T17:40:11.831Z,52.85
2019-04-11T17:42:44.008Z,51.02
2019-04-11T17:45:16.023Z,50.95
2019-04-11T17:47:46.514Z,46.65
2019-04-11T17:50:17.049Z,47.90
2019-04-11T17:52:47.853Z,53.35
2019-04-11T17:55:18.340Z,47.15
2019-04-11T17:57:49.881Z,58.73
2019-04-11T18:00:29.547Z,55.83
2019-04-11T18:02:58.636Z,50.92
2019-04-11T18:05:30.128Z,49.75
2019-04-11T18:08:00.724Z,50.63
2019-04-11T18:10:32.306Z,51.92
2019-04-11T18:13:02.879Z,52.23
2019-04-11T18:15:33.539Z,57.73
2019-04-11T18:18:05.447Z,59.73
2019-04-11T18:20:37.112Z,58.60
2019-04-11T18:23:11.876Z,63.02
2019-04-11T18:25:42.406Z,53.00
2019-04-11T18:28:13.864Z,57.10
2019-04-11T18:30:45.110Z,59.98
2019-04-11T18:33:20.995Z,58.13
2019-04-11T18:35:51.694Z,55.78
2019-04-11T18:38:22.873Z,56.13
2019-04-11T18:40:53.159Z,59.03
2019-04-11T18:43:26.872Z,59.90
2019-04-11T18:45:57.065Z,58.10
2019-04-11T18:48:27.507Z,59.73
2019-04-11T18:50:57.978Z,56.53
2019-04-11T18:53:28.217Z,53.80
2019-04-11T18:56:01.491Z,55.43
2019-04-11T18:58:33.753Z,56.63
2019-04-11T19:01:03.220Z,60.08
2019-04-11T19:03:36.320Z,54.48
2019-04-11T19:06:05.597Z,56.02
2019-04-11T19:08:36.500Z,57.85
2019-04-11T19:11:07.472Z,56.40
2019-04-11T19:13:39.266Z,54.38
2019-04-11T19:16:09.772Z,57.03
2019-04-11T19:18:47.160Z,59.05
2019-04-11T19:21:20.048Z,59.90
2019-04-11T19:23:49.115Z,55.80
2019-04-11T19:26:19.459Z,56.42
2019-04-11T19:28:50.000Z,58.98
2019-04-11T19:31:20.375Z,57.00
2019-04-11T19:33:50.590Z,61.00
2019-04-11T19:36:20.946Z,56.20
2019-04-11T19:38:51.213Z,56.60
2019-04-11T19:41:21.581Z,59.83
2019-04-11T19:43:51.813Z,62.15
2019-04-11T19:46:22.027Z,61.15
2019-04-11T19:48:55.060Z,53.17
2019-04-11T19:51:24.295Z,58.20
2019-04-11T19:53:54.533Z,57.08
2019-04-11T19:56:38.180Z,52.98
2019-04-11T19:59:10.339Z,52.10
2019-04-11T20:01:40.700Z,54.70
2019-04-11T20:04:10.936Z,49.98
2019-04-11T20:06:44.513Z,55.05
2019-04-11T20:09:14.883Z,53.08
2019-04-11T20:11:47.908Z,57.65
2019-04-11T20:14:18.143Z,53.08
2019-04-11T20:16:49.993Z,50.52
2019-04-11T20:19:20.763Z,51.68
2019-04-11T20:21:50.960Z,59.23
2019-04-11T20:24:21.339Z,56.33
2019-04-11T20:26:51.696Z,56.42
2019-04-11T20:29:22.108Z,56.20
2019-04-11T20:31:52.649Z,57.93
2019-04-11T20:34:27.707Z,57.60
2019-04-11T20:36:54.873Z,61.92
2019-04-11T20:39:25.224Z,56.20
2019-04-11T20:41:56.038Z,56.30
2019-04-11T20:44:27.481Z,56.23
2019-04-11T20:47:00.412Z,58.17
2019-04-11T20:49:33.111Z,54.33
2019-04-11T20:52:03.413Z,59.50
2019-04-11T20:54:35.966Z,55.30
2019-04-11T20:57:05.581Z,54.13
2019-04-11T20:59:41.215Z,51.00
2019-04-11T21:02:07.833Z,48.40
2019-04-11T21:04:39.158Z,59.77
2019-04-11T21:07:09.429Z,52.90
2019-04-11T21:09:40.079Z,54.25
2019-04-11T21:12:10.274Z,61.48
2019-04-11T21:14:50.600Z,56.20
2019-04-11T21:17:19.853Z,61.58
2019-04-11T21:19:51.010Z,58.17
2019-04-11T21:22:24.182Z,52.73
2019-04-11T21:24:54.044Z,56.50
2019-04-11T21:27:24.417Z,57.15
2019-04-11T21:29:54.720Z,55.63
2019-04-11T21:32:25.067Z,58.87
2019-04-11T21:34:55.283Z,58.02
2019-04-11T21:37:26.671Z,55.40
2019-04-11T21:39:56.889Z,55.73
2019-04-11T21:42:27.185Z,63.73
2019-04-11T21:44:57.435Z,62.20
2019-04-11T21:47:27.842Z,61.25
2019-04-11T21:49:58.020Z,59.33
2019-04-11T21:52:28.388Z,59.08
2019-04-11T21:54:58.610Z,56.05
2019-04-11T21:57:28.837Z,52.95
2019-04-11T22:00:01.468Z,53.45
2019-04-11T22:02:31.446Z,61.18
2019-04-11T22:05:01.984Z,62.85
2019-04-11T22:07:32.558Z,51.25
2019-04-11T22:10:06.923Z,56.15
2019-04-11T22:12:39.721Z,59.65
2019-04-11T22:15:11.739Z,56.85
2019-04-11T22:17:45.498Z,62.88
2019-04-11T22:20:16.829Z,58.52
2019-04-11T22:22:47.737Z,60.83
2019-04-11T22:25:17.972Z,55.80
2019-04-11T22:27:48.263Z,57.03
2019-04-11T22:30:19.689Z,58.10
2019-04-11T22:32:57.439Z,54.60
2019-04-11T22:35:29.027Z,54.03
2019-04-11T22:38:00.367Z,57.85
2019-04-11T22:40:31.933Z,53.35
2019-04-11T22:43:02.732Z,61.42
2019-04-11T22:45:37.650Z,60.92
2019-04-11T22:48:08.456Z,67.47
2019-04-11T22:50:40.583Z,72.03
2019-04-11T22:53:13.030Z,66.87
2019-04-11T22:55:43.670Z,65.62
2019-04-11T22:58:14.754Z,70.57
2019-04-11T23:00:45.887Z,71.77
2019-04-11T23:03:23.678Z,69.10
2019-04-11T23:05:53.893Z,69.10
2019-04-11T23:08:24.113Z,70.75
2019-04-11T23:10:54.514Z,70.60
2019-04-11T23:13:24.892Z,70.28
2019-04-11T23:15:55.195Z,71.87
2019-04-11T23:18:25.541Z,69.35
2019-04-11T23:20:56.064Z,70.52
2019-04-11T23:23:26.363Z,74.90
2019-04-11T23:25:56.545Z,70.85
2019-04-11T23:28:26.725Z,69.87
2019-04-11T23:30:57.032Z,73.02
2019-04-11T23:33:27.412Z,71.07
2019-04-11T23:35:57.671Z,69.20
2019-04-11T23:38:27.858Z,73.90
2019-04-11T23:40:59.091Z,72.35
2019-04-11T23:43:49.995Z,70.67
2019-04-11T23:46:21.390Z,69.92
2019-04-11T23:48:55.462Z,71.57
2019-04-11T23:51:26.311Z,71.70
2019-04-11T23:53:58.982Z,64.00
2019-04-11T23:56:30.582Z,71.20
2019-04-11T23:59:02.130Z,69.62
